createdAt,value
2019-01-09T00:02:24.601Z,4.60
2019-01-09T00:05:05.287Z,4.60
2019-01-09T00:07:45.510Z,4.50
2019-01-09T00:10:26.147Z,4.50
2019-01-09T00:13:06.456Z,4.50
2019-01-09T00:15:46.769Z,4.40
2019-01-09T00:18:27.315Z,4.40
2019-01-09T00:21:07.873Z,4.40
2019-01-09T00:23:48.958Z,4.40
2019-01-09T00:26:29.584Z,4.30
2019-01-09T00:29:10.643Z,4.20
2019-01-09T00:31:51.705Z,4.30
2019-01-09T00:34:32.403Z,4.20
2019-01-09T00:37:13.195Z,4.30
2019-01-09T00:39:53.923Z,4.20
2019-01-09T00:42:22.385Z,4.20
2019-01-09T00:44:50.860Z,4.10
2019-01-09T00:47:38.737Z,4.10
2019-01-09T00:50:26.561Z,4.10
2019-01-09T00:53:33.889Z,4.00
2019-01-09T00:59:20.300Z,4.10
2019-01-09T01:02:27.673Z,4.10
2019-01-09T01:05:34.799Z,4.20
2019-01-09T01:08:41.970Z,4.20
2019-01-09T01:11:49.188Z,4.20
2019-01-09T01:14:56.418Z,4.20
2019-01-09T01:18:03.574Z,4.20
2019-01-09T01:21:10.691Z,4.20
2019-01-09T01:24:17.852Z,4.10
2019-01-09T01:27:25.075Z,4.10
2019-01-09T01:30:17.631Z,4.10
2019-01-09T01:32:58.039Z,4.00
2019-01-09T01:35:38.254Z,3.90
2019-01-09T01:38:46.853Z,3.90
2019-01-09T01:41:54.095Z,3.80
2019-01-09T01:45:02.716Z,3.70
2019-01-09T01:47:43.154Z,3.70
2019-01-09T01:50:50.759Z,3.60
2019-01-09T01:53:57.972Z,3.60
2019-01-09T01:57:05.114Z,3.60
2019-01-09T02:00:13.639Z,3.60
2019-01-09T02:03:22.335Z,3.50
2019-01-09T02:06:31.198Z,3.50
2019-01-09T02:09:39.814Z,3.50
2019-01-09T02:12:47.019Z,3.50
2019-01-09T02:15:54.152Z,3.50
2019-01-09T02:19:02.680Z,3.50
2019-01-09T02:21:40.078Z,3.50
2019-01-09T02:24:20.272Z,3.50
2019-01-09T02:27:11.493Z,3.50
2019-01-09T02:29:57.852Z,3.50
2019-01-09T02:32:32.598Z,3.60
2019-01-09T02:35:20.485Z,3.60
2019-01-09T02:38:08.599Z,3.60
2019-01-09T02:40:56.405Z,3.60
2019-01-09T02:43:44.260Z,3.70
2019-01-09T02:46:32.149Z,3.60
2019-01-09T02:49:20.059Z,3.60
2019-01-09T02:52:08.684Z,3.70
2019-01-09T02:54:56.540Z,3.80
2019-01-09T02:57:44.352Z,3.80
2019-01-09T03:00:32.179Z,3.90
2019-01-09T03:03:20.083Z,3.90
2019-01-09T03:06:08.910Z,4.00
2019-01-09T03:08:56.801Z,4.00
2019-01-09T03:11:44.667Z,4.00
2019-01-09T03:14:32.480Z,4.00
2019-01-09T03:17:20.322Z,4.00
2019-01-09T03:20:08.963Z,4.10
2019-01-09T03:22:56.883Z,4.10
2019-01-09T03:25:44.755Z,4.10
2019-01-09T03:28:32.583Z,4.10
2019-01-09T03:31:20.414Z,4.20
2019-01-09T03:34:09.025Z,4.10
2019-01-09T03:36:56.886Z,4.10
2019-01-09T03:39:44.740Z,4.00
2019-01-09T03:42:32.656Z,3.90
2019-01-09T03:45:20.534Z,3.90
2019-01-09T03:48:00.644Z,3.90
2019-01-09T03:50:48.464Z,3.90
2019-01-09T03:53:36.368Z,3.90
2019-01-09T03:56:24.266Z,3.90
2019-01-09T03:59:12.148Z,4.00
2019-01-09T04:01:59.964Z,4.00
2019-01-09T04:04:47.842Z,4.10
2019-01-09T04:07:35.664Z,4.00
2019-01-09T04:10:23.550Z,4.00
2019-01-09T04:13:11.367Z,3.90
2019-01-09T04:15:59.169Z,3.80
2019-01-09T04:18:47.032Z,3.80
2019-01-09T04:21:34.902Z,3.80
2019-01-09T04:24:22.801Z,3.80
2019-01-09T04:27:10.622Z,3.80
2019-01-09T04:29:58.440Z,3.80
2019-01-09T04:32:46.239Z,3.80
2019-01-09T04:35:34.156Z,3.80
2019-01-09T04:38:41.242Z,3.70
2019-01-09T04:41:29.130Z,3.60
2019-01-09T04:44:17.034Z,3.60
2019-01-09T04:46:58.818Z,3.50
2019-01-09T04:49:39.272Z,3.50
2019-01-09T04:52:20.222Z,3.50
2019-01-09T04:55:00.736Z,3.60
2019-01-09T04:57:41.316Z,3.70
2019-01-09T05:00:21.807Z,3.60
2019-01-09T05:03:02.842Z,3.80
2019-01-09T05:05:43.828Z,3.60
2019-01-09T05:08:24.149Z,3.60
2019-01-09T05:11:05.460Z,3.50
2019-01-09T05:13:46.412Z,3.60
2019-01-09T05:16:27.450Z,3.60
2019-01-09T05:19:08.338Z,3.70
2019-01-09T05:21:47.121Z,3.70
2019-01-09T05:24:35.014Z,3.70
2019-01-09T05:27:22.840Z,3.70
2019-01-09T05:30:10.745Z,3.70
2019-01-09T05:32:58.563Z,3.60
2019-01-09T05:35:46.479Z,3.60
2019-01-09T05:38:34.356Z,3.40
2019-01-09T05:41:22.215Z,3.40
2019-01-09T05:44:10.088Z,3.30
2019-01-09T05:46:51.210Z,3.30
2019-01-09T05:49:31.960Z,3.10
2019-01-09T05:52:12.813Z,3.10
2019-01-09T05:54:53.219Z,3.10
2019-01-09T05:57:33.704Z,3.10
2019-01-09T06:00:12.600Z,3.10
2019-01-09T06:03:00.506Z,3.20
2019-01-09T06:05:48.388Z,3.20
2019-01-09T06:08:36.275Z,3.20
2019-01-09T06:11:24.114Z,3.20
2019-01-09T06:14:11.998Z,3.00
2019-01-09T06:16:59.800Z,3.00
2019-01-09T06:19:47.642Z,2.90
2019-01-09T06:22:35.534Z,2.90
2019-01-09T06:25:23.456Z,2.90
2019-01-09T06:28:11.348Z,2.90
2019-01-09T06:30:59.264Z,2.90
2019-01-09T06:33:27.871Z,2.90
2019-01-09T06:36:35.102Z,2.90
2019-01-09T06:39:22.971Z,2.90
2019-01-09T06:42:10.831Z,3.00
2019-01-09T06:44:58.691Z,3.00
2019-01-09T06:47:46.520Z,2.90
2019-01-09T06:50:27.134Z,3.00
2019-01-09T06:53:07.674Z,3.00
2019-01-09T06:55:47.997Z,3.00
2019-01-09T06:58:28.739Z,3.10
2019-01-09T07:01:09.624Z,3.10
2019-01-09T07:03:50.551Z,3.20
2019-01-09T07:06:31.578Z,3.20
2019-01-09T07:09:12.713Z,3.30
2019-01-09T07:11:53.907Z,3.30
2019-01-09T07:14:34.971Z,3.20
2019-01-09T07:17:15.554Z,3.20
2019-01-09T07:19:56.468Z,3.20
2019-01-09T07:22:37.353Z,3.20
2019-01-09T07:25:18.080Z,3.30
2019-01-09T07:27:58.685Z,3.30
2019-01-09T07:30:39.671Z,3.40
2019-01-09T07:33:20.402Z,3.30
2019-01-09T07:36:01.495Z,3.30
2019-01-09T07:38:42.863Z,3.40
2019-01-09T07:41:23.456Z,3.40
2019-01-09T07:44:04.336Z,3.40
2019-01-09T07:46:44.844Z,3.50
2019-01-09T07:49:25.994Z,3.60
2019-01-09T07:52:07.066Z,3.60
2019-01-09T07:54:47.452Z,3.60
2019-01-09T07:57:27.895Z,3.60
2019-01-09T08:00:08.817Z,3.70
2019-01-09T08:02:49.825Z,3.70
2019-01-09T08:05:30.836Z,3.70
2019-01-09T08:08:12.150Z,3.70
2019-01-09T08:10:52.656Z,3.80
2019-01-09T08:13:33.956Z,3.70
2019-01-09T08:16:12.793Z,3.70
2019-01-09T08:21:54.101Z,3.80
2019-01-09T08:24:41.901Z,3.70
2019-01-09T08:27:29.713Z,3.80
2019-01-09T08:30:17.558Z,3.80
2019-01-09T08:33:05.469Z,3.90
2019-01-09T08:35:53.376Z,3.90
2019-01-09T08:38:41.237Z,3.80
2019-01-09T08:41:36.359Z,3.80
2019-01-09T08:44:24.257Z,3.90
2019-01-09T08:47:12.165Z,3.80
2019-01-09T08:49:52.919Z,3.80
2019-01-09T08:52:33.842Z,3.80
2019-01-09T08:55:14.813Z,3.80
2019-01-09T08:57:55.209Z,3.90
2019-01-09T09:00:36.123Z,3.90
2019-01-09T09:03:14.959Z,4.00
2019-01-09T09:06:02.840Z,4.00
2019-01-09T09:08:50.937Z,3.90
2019-01-09T09:11:38.862Z,3.90
2019-01-09T09:14:26.770Z,4.00
2019-01-09T09:17:26.386Z,3.90
2019-01-09T09:20:24.995Z,4.00
2019-01-09T09:23:12.870Z,4.00
2019-01-09T09:26:19.897Z,4.00
2019-01-09T09:29:07.765Z,4.10
2019-01-09T09:31:55.605Z,4.20
2019-01-09T09:34:43.474Z,4.10
2019-01-09T09:37:31.297Z,4.20
2019-01-09T09:40:19.657Z,4.20
2019-01-09T09:43:07.581Z,4.20
2019-01-09T09:45:55.761Z,4.30
2019-01-09T09:48:37.023Z,4.20
2019-01-09T09:51:17.529Z,4.20
2019-01-09T09:53:57.914Z,4.20
2019-01-09T09:56:38.705Z,4.20
2019-01-09T09:59:20.193Z,4.30
2019-01-09T10:02:00.569Z,4.20
2019-01-09T10:04:41.752Z,4.20
2019-01-09T10:07:22.123Z,4.20
2019-01-09T10:10:02.688Z,4.20
2019-01-09T10:12:43.287Z,4.20
2019-01-09T10:15:24.327Z,4.20
2019-01-09T10:18:05.296Z,4.20
2019-01-09T10:20:45.698Z,4.20
2019-01-09T10:23:25.893Z,4.30
2019-01-09T10:26:06.816Z,4.20
2019-01-09T10:28:47.749Z,4.30
2019-01-09T10:31:28.658Z,4.20
2019-01-09T10:34:08.977Z,4.20
2019-01-09T10:36:49.454Z,4.10
2019-01-09T10:39:29.774Z,4.20
2019-01-09T10:42:10.840Z,4.30
2019-01-09T10:44:51.835Z,4.30
2019-01-09T10:47:32.780Z,4.20
2019-01-09T10:50:14.011Z,4.30
2019-01-09T10:52:55.014Z,4.30
2019-01-09T10:55:35.999Z,4.40
2019-01-09T10:58:16.205Z,4.40
2019-01-09T11:00:57.372Z,4.40
2019-01-09T11:03:37.861Z,4.50
2019-01-09T11:06:18.324Z,4.50
2019-01-09T11:08:58.749Z,4.40
2019-01-09T11:11:37.535Z,4.40
2019-01-09T11:14:25.438Z,4.40
2019-01-09T11:17:13.389Z,4.40
2019-01-09T11:20:01.215Z,4.40
2019-01-09T11:22:49.302Z,4.40
2019-01-09T11:25:37.220Z,4.40
2019-01-09T11:28:25.080Z,4.40
2019-01-09T11:31:12.900Z,4.40
2019-01-09T11:33:53.821Z,4.50
2019-01-09T11:36:34.714Z,4.50
2019-01-09T11:39:15.898Z,4.50
2019-01-09T11:41:56.326Z,4.40
2019-01-09T11:44:37.004Z,4.30
2019-01-09T11:47:15.883Z,4.40
2019-01-09T11:50:24.416Z,4.40
2019-01-09T11:53:12.264Z,4.40
2019-01-09T11:56:00.156Z,4.50
2019-01-09T11:58:48.075Z,4.40
2019-01-09T12:01:36.005Z,4.50
2019-01-09T12:04:23.895Z,4.40
2019-01-09T12:07:11.809Z,4.30
2019-01-09T12:09:59.691Z,4.40
2019-01-09T12:12:47.678Z,4.50
2019-01-09T12:15:35.537Z,4.30
2019-01-09T12:18:23.439Z,4.20
2019-01-09T12:21:16.687Z,4.30
2019-01-09T12:24:00.863Z,4.30
2019-01-09T12:26:29.351Z,4.30
2019-01-09T12:28:57.914Z,4.30
2019-01-09T12:31:26.458Z,4.30
2019-01-09T12:34:05.947Z,4.40
2019-01-09T12:36:53.817Z,4.50
2019-01-09T12:39:41.652Z,4.40
2019-01-09T12:42:29.521Z,4.50
2019-01-09T12:44:59.298Z,4.40
2019-01-09T12:47:27.848Z,4.30
2019-01-09T12:49:56.450Z,4.30
2019-01-09T12:52:24.936Z,4.40
2019-01-09T12:55:12.832Z,4.50
2019-01-09T12:58:00.718Z,4.30
2019-01-09T13:00:48.526Z,4.40
2019-01-09T13:03:36.340Z,4.50
2019-01-09T13:06:24.212Z,4.50
2019-01-09T13:12:10.276Z,4.50
2019-01-09T13:14:58.171Z,4.50
2019-01-09T13:17:46.786Z,4.40
2019-01-09T13:20:34.695Z,4.40
2019-01-09T13:23:22.500Z,4.40
2019-01-09T13:26:10.354Z,4.40
2019-01-09T13:28:58.249Z,4.30
2019-01-09T13:31:46.139Z,4.30
2019-01-09T13:34:34.017Z,4.40
2019-01-09T13:37:21.856Z,4.50
2019-01-09T13:40:29.086Z,4.50
2019-01-09T13:43:16.952Z,4.50
2019-01-09T13:46:04.767Z,4.40
2019-01-09T13:52:01.084Z,4.30
2019-01-09T13:54:48.913Z,4.40
2019-01-09T13:57:36.788Z,4.40
2019-01-09T14:00:24.607Z,4.30
2019-01-09T14:03:12.484Z,4.30
2019-01-09T14:06:19.641Z,4.40
2019-01-09T14:09:07.718Z,4.40
2019-01-09T14:11:55.616Z,4.30
2019-01-09T14:14:43.507Z,4.40
2019-01-09T14:17:31.329Z,4.30
2019-01-09T14:20:19.488Z,4.30
2019-01-09T14:23:07.316Z,4.30
2019-01-09T14:25:55.199Z,4.30
2019-01-09T14:28:43.016Z,4.30
2019-01-09T14:31:30.832Z,4.30
2019-01-09T14:34:18.717Z,4.30
2019-01-09T14:36:59.179Z,4.40
2019-01-09T14:39:47.859Z,4.40
2019-01-09T14:42:22.865Z,4.50
2019-01-09T14:45:05.007Z,4.50
2019-01-09T14:47:45.935Z,4.50
2019-01-09T14:50:28.451Z,4.40
2019-01-09T14:53:09.415Z,4.30
2019-01-09T14:55:50.010Z,4.20
2019-01-09T14:58:30.863Z,4.20
2019-01-09T15:01:11.716Z,4.40
2019-01-09T15:03:52.790Z,4.30
2019-01-09T15:06:33.265Z,4.40
2019-01-09T15:09:13.538Z,4.40
2019-01-09T15:11:54.166Z,4.30
2019-01-09T15:14:35.294Z,4.30
2019-01-09T15:17:16.372Z,4.30
2019-01-09T15:19:56.798Z,4.20
2019-01-09T15:22:37.837Z,4.20
2019-01-09T15:25:18.148Z,4.20
2019-01-09T15:27:59.226Z,4.10
2019-01-09T15:30:39.914Z,4.10
2019-01-09T15:33:20.598Z,4.10
2019-01-09T15:36:03.010Z,4.10
2019-01-09T15:38:43.763Z,4.10
2019-01-09T15:41:24.218Z,4.20
2019-01-09T15:44:03.014Z,4.10
2019-01-09T15:46:50.861Z,4.20
2019-01-09T15:49:38.740Z,4.20
2019-01-09T15:52:26.652Z,4.10
2019-01-09T15:55:35.293Z,4.10
2019-01-09T15:58:23.183Z,4.10
2019-01-09T16:01:11.038Z,4.10
2019-01-09T16:03:58.916Z,4.10
2019-01-09T16:06:46.800Z,4.10
2019-01-09T16:09:34.643Z,4.10
2019-01-09T16:15:29.426Z,4.10
2019-01-09T16:18:18.976Z,4.00
2019-01-09T16:21:06.868Z,4.00
2019-01-09T16:23:54.770Z,4.00
2019-01-09T16:26:42.669Z,4.00
2019-01-09T16:29:30.548Z,4.00
2019-01-09T16:32:18.409Z,4.00
2019-01-09T16:35:27.035Z,3.90
2019-01-09T16:38:14.930Z,4.00
2019-01-09T16:41:02.835Z,4.00
2019-01-09T16:43:50.732Z,4.00
2019-01-09T16:46:38.643Z,3.90
2019-01-09T16:49:27.972Z,4.00
2019-01-09T16:52:16.068Z,3.90
2019-01-09T16:55:24.721Z,3.90
2019-01-09T16:58:12.627Z,3.80
2019-01-09T17:01:00.527Z,3.90
2019-01-09T17:03:48.436Z,3.80
2019-01-09T17:09:43.211Z,3.90
2019-01-09T17:12:23.816Z,3.90
2019-01-09T17:15:04.626Z,3.90
2019-01-09T17:17:45.150Z,3.90
2019-01-09T17:20:26.254Z,3.90
2019-01-09T17:23:07.226Z,3.80
2019-01-09T17:25:47.556Z,3.90
2019-01-09T17:28:28.731Z,3.90
2019-01-09T17:31:09.888Z,3.90
2019-01-09T17:33:51.088Z,3.90
2019-01-09T17:36:32.119Z,3.90
2019-01-09T17:39:13.631Z,3.90
2019-01-09T17:41:54.553Z,3.90
2019-01-09T17:44:33.434Z,3.90
2019-01-09T17:47:21.345Z,3.90
2019-01-09T17:50:28.564Z,3.80
2019-01-09T17:53:30.650Z,3.90
2019-01-09T17:56:06.264Z,3.90
2019-01-09T17:58:55.804Z,3.80
2019-01-09T18:01:43.720Z,3.80
2019-01-09T18:04:31.684Z,3.80
2019-01-09T18:07:19.616Z,3.80
2019-01-09T18:10:29.911Z,3.80
2019-01-09T18:13:17.829Z,3.80
2019-01-09T18:16:05.835Z,3.90
2019-01-09T18:18:53.720Z,3.90
2019-01-09T18:22:00.863Z,3.90
2019-01-09T18:24:48.762Z,3.90
2019-01-09T18:27:36.670Z,3.90
2019-01-09T18:30:43.891Z,3.90
2019-01-09T18:33:52.528Z,3.90
2019-01-09T18:37:01.197Z,3.90
2019-01-09T18:40:09.827Z,3.90
2019-01-09T18:43:17.070Z,3.80
2019-01-09T18:46:24.454Z,3.90
2019-01-09T18:49:05.036Z,3.90
2019-01-09T18:51:45.700Z,3.80
2019-01-09T18:54:26.346Z,3.80
2019-01-09T18:57:07.233Z,3.80
2019-01-09T18:59:47.614Z,3.80
2019-01-09T19:02:28.084Z,3.90
2019-01-09T19:05:08.980Z,3.90
2019-01-09T19:07:50.149Z,3.90
2019-01-09T19:10:31.063Z,3.90
2019-01-09T19:13:12.408Z,3.90
2019-01-09T19:15:52.856Z,3.90
2019-01-09T19:18:33.858Z,3.80
2019-01-09T19:21:02.447Z,3.90
2019-01-09T19:23:30.993Z,3.80
2019-01-09T19:25:59.560Z,3.90
2019-01-09T19:28:29.321Z,3.90
2019-01-09T19:30:57.960Z,3.90
2019-01-09T19:33:27.334Z,4.00
2019-01-09T19:35:57.008Z,3.90
2019-01-09T19:38:25.554Z,3.90
2019-01-09T19:40:55.677Z,3.90
2019-01-09T19:43:25.270Z,3.90
2019-01-09T19:45:53.831Z,4.00
2019-01-09T19:48:22.475Z,4.00
2019-01-09T19:50:51.122Z,4.00
2019-01-09T19:53:20.736Z,4.00
2019-01-09T19:56:08.719Z,4.00
2019-01-09T19:58:56.708Z,4.00
2019-01-09T20:01:44.609Z,4.00
2019-01-09T20:04:32.877Z,4.00
2019-01-09T20:07:20.775Z,4.00
2019-01-09T20:10:29.423Z,4.00
2019-01-09T20:13:19.654Z,4.00
2019-01-09T20:16:07.554Z,4.00
2019-01-09T20:18:57.296Z,4.00
2019-01-09T20:21:45.222Z,4.00
2019-01-09T20:24:33.382Z,4.10
2019-01-09T20:27:40.503Z,4.10
2019-01-09T20:33:23.517Z,4.10
2019-01-09T20:36:17.114Z,4.00
2019-01-09T20:38:45.718Z,3.90
2019-01-09T20:41:35.526Z,4.00
2019-01-09T20:44:23.211Z,4.00
2019-01-09T20:47:05.144Z,4.10
2019-01-09T20:49:45.660Z,4.10
2019-01-09T20:52:26.744Z,4.20
2019-01-09T20:54:55.890Z,4.20
2019-01-09T20:57:24.536Z,4.10
2019-01-09T20:59:54.684Z,4.20
2019-01-09T21:02:24.608Z,4.10
2019-01-09T21:04:56.531Z,4.00
2019-01-09T21:07:25.272Z,4.00
2019-01-09T21:09:59.003Z,3.90
2019-01-09T21:12:30.142Z,3.90
2019-01-09T21:14:58.703Z,3.80
2019-01-09T21:17:27.425Z,3.70
2019-01-09T21:19:58.013Z,3.80
2019-01-09T21:22:46.450Z,3.70
2019-01-09T21:25:34.388Z,3.80
2019-01-09T21:28:22.272Z,3.70
2019-01-09T21:31:10.253Z,3.70
2019-01-09T21:33:58.151Z,3.60
2019-01-09T21:36:46.100Z,3.60
2019-01-09T21:42:41.453Z,3.70
2019-01-09T21:45:29.337Z,3.70
2019-01-09T21:48:09.901Z,3.70
2019-01-09T21:50:50.834Z,3.60
2019-01-09T21:53:31.800Z,3.60
2019-01-09T21:56:11.657Z,3.60
2019-01-09T21:58:59.535Z,3.50
2019-01-09T22:01:47.446Z,3.50
2019-01-09T22:04:37.573Z,3.50
2019-01-09T22:07:26.497Z,3.60
2019-01-09T22:10:33.735Z,3.50
2019-01-09T22:13:42.735Z,3.50
2019-01-09T22:16:11.333Z,3.50
2019-01-09T22:18:39.875Z,3.60
2019-01-09T22:21:08.446Z,3.60
2019-01-09T22:23:56.345Z,3.60
2019-01-09T22:26:44.252Z,3.60
2019-01-09T22:29:32.157Z,3.50
2019-01-09T22:32:22.284Z,3.50
2019-01-09T22:35:09.750Z,3.60
2019-01-09T22:37:57.673Z,3.60
2019-01-09T22:40:45.593Z,3.60
2019-01-09T22:43:33.499Z,3.60
2019-01-09T22:46:21.546Z,3.60
2019-01-09T22:49:10.457Z,3.50
2019-01-09T22:51:58.950Z,3.50
2019-01-09T22:54:46.844Z,3.50
2019-01-09T22:57:34.761Z,3.50
2019-01-09T23:03:51.154Z,3.40
2019-01-09T23:06:39.080Z,3.50
2019-01-09T23:09:27.019Z,3.60
2019-01-09T23:12:21.087Z,3.60
2019-01-09T23:18:13.694Z,3.60
2019-01-09T23:21:01.500Z,3.50
2019-01-09T23:23:49.388Z,3.50
2019-01-09T23:26:37.181Z,3.50
2019-01-09T23:29:25.119Z,3.50
2019-01-09T23:32:13.017Z,3.50
2019-01-09T23:35:00.919Z,3.50
2019-01-09T23:37:50.369Z,3.50
2019-01-09T23:40:38.268Z,3.50
2019-01-09T23:43:26.169Z,3.40
2019-01-09T23:46:14.101Z,3.40
2019-01-09T23:48:54.997Z,3.50
2019-01-09T23:51:36.275Z,3.40
2019-01-09T23:54:17.609Z,3.50
2019-01-09T23:56:58.225Z,3.50
2019-01-09T23:59:39.007Z,3.40
